Portada
METAR-TAF:

METAR-TAF

Aeropuertos :

Aeropuerto de San Galo-Altenrhein

San Galo, Suiza

latitud: 47-29-06N, longitud: 009-33-43E, altitud: 398 m

Observación

El informe se hizo hace 37 minutos, a las 06:20 UTC
Viento 5 kt del oeste
Temperatura 12°C
Humedad 94%
Presión 1008 hPa
Visibilidad 10 km o más
Escasas nubes a una altura de 900 ft
Cielo cubierto a una altura de 1900 ft
lluvia ligera

METAR: LSZR 070620Z AUTO 26005KT 9999 -RA FEW009 OVC019 12/11 Q1008

Hora: 08:57 (06:57 UTC)

Pronóstico

El informe se hizo hace 1 hora y 32 minutos, a las 05:25 UTC
Pronóstico válido del 07 a las 06 UTC al 07 a las 15 UTC
Viento 10 kt del oeste
Visibilidad 10 km o más
Nubes dispersas a una altura de 2000 ft
Cielo nuboso a una altura de 2500 ft
Temporalmente
del 07 a las 06 UTC al 07 a las 15 UTC
lluvia

TAF: LSZR 070525Z 0706/0715 28010KT 9999 SCT020 BKN025 TEMPO 0706/0715 RA

Observaciones y pronósticos meteorológicos de más de 4000 aeropuertos (mensajes METAR y TAF).

Los puntos amarillos y rojos representan las estaciones disponibles.

Ponga el ratón en el punto deseado para ver el nombre de la estación.

Haga clic para ver las observaciones y los pronósticos meteorológicos.

Para cambiar el mapa : haga clic en los botones verdes con una cruz de color negro para hacer un zoom, en el botón verde con un guión para alejar o en las flechas verdes para mapas adyacentes.


METAR-TAF: